Terminal Aerodrome Forecast
Issued by NWS Knoxville/Tri Cities, TN

Home | Current Version | Previous Version | Text Only | Print | Product List | Glossary On
Versions: 1 2 3 4 5 6 7 8 9 10 11 12 13 14 15 16 17 18 19 20 21 22 23 24 25 26 27 28 29 30 31 32
000
FTUS44 KMRX 230520
TAFTYS
TAF
KTYS 230520Z 2306/2406 24003KT P6SM SCT150 BKN250
     FM231100 VRB03KT 6SM BR SCT025 BKN250
     FM231300 28006KT P6SM SCT040 BKN250
     FM231900 27007KT P6SM VCTS SCT050CB BKN250
     FM240100 VRB03KT P6SM FEW060 SCT150=

USA.gov is the U.S. government's official web portal to all federal, state and local government web resources and services.